Attica, Indiana
Current Conditions -  °F | °C
As of 5:54 AM on Monday 22 Dec 2014 (Local Time) from KLAF Reporting Station
Overcast Overcast  
Wind Chill: -5°   Ceiling: 7500
Heat Index: -1°   Visibility: 7mi
Dew Point: -3°   Wind: 7mph
Humidity: 88%   Direction: 100°E
Pressure: 29.98"   Gusts: NA
Location:  40.29°N, 87.25°W
Report Text: KLAF 221054Z AUTO 10006KT 7SM OVC075 M01/M03 A2998 RMK AO2 SLP156 T10111028 TSNO
Loading
Personal Weather Stations






























Interactive Weather Map New forecast layout! Learn more

10-Day Weather Forecast

Advertisements
Track Severe Weather on mobile